Time;durP1;ratioP1;P1;durP2;ratioP2;P2;SDS_P1;SDS_P2;PMS_P1;PMS_P2;Temp;Humidity;BMP_temperature;BMP_pressure;BME280_temperature;BME280_humidity;BME280_pressure;Samples;Min_cycle;Max_cycle;Signal;HPM_P1;HPM_P2
2022/04/30 00:00:04;;;;;;;3.28;1.92;;;12.50;99.90;;;;;;1039196;28;20014;-65
2022/04/30 00:00:35;;;;;;;3.95;2.08;;;12.50;99.90;;;;;;1039318;28;20550;-65
2022/04/30 00:01:06;;;;;;;2.70;1.97;;;12.50;99.90;;;;;;1039776;28;20836;-66
2022/04/30 00:01:36;;;;;;;3.53;1.73;;;12.50;99.90;;;;;;1038975;28;20010;-66
2022/04/30 00:02:09;;;;;;;5.07;2.30;;;12.50;99.90;;;;;;1039368;28;20022;-67
2022/04/30 00:02:40;;;;;;;2.88;1.95;;;12.50;99.90;;;;;;1039764;28;20001;-66
2022/04/30 00:03:11;;;;;;;3.47;1.90;;;12.50;99.90;;;;;;1039284;28;20022;-65
2022/04/30 00:03:42;;;;;;;3.40;1.67;;;12.50;99.90;;;;;;1039385;28;20080;-66
2022/04/30 00:04:12;;;;;;;3.20;2.08;;;12.50;99.90;;;;;;1038997;28;20013;-66
2022/04/30 00:04:45;;;;;;;4.07;2.10;;;12.50;99.90;;;;;;1039314;28;20492;-65
2022/04/30 00:05:17;;;;;;;4.80;2.10;;;12.50;99.90;;;;;;1039156;28;20021;-66
2022/04/30 00:05:48;;;;;;;2.28;1.70;;;12.50;99.90;;;;;;1039233;28;20048;-65
2022/04/30 00:06:18;;;;;;;2.13;1.80;;;12.50;99.90;;;;;;1038709;28;20028;-64
2022/04/30 00:06:49;;;;;;;3.70;1.83;;;12.50;99.90;;;;;;1039455;28;20477;-64
2022/04/30 00:07:20;;;;;;;2.77;1.77;;;12.50;99.90;;;;;;1039261;28;20095;-64
2022/04/30 00:07:51;;;;;;;3.53;2.35;;;12.50;99.90;;;;;;1039346;28;20060;-65
2022/04/30 00:08:23;;;;;;;1.40;1.27;;;12.50;99.90;;;;;;1038956;28;20017;-64
2022/04/30 00:08:53;;;;;;;6.65;1.70;;;12.50;99.90;;;;;;1035132;28;20014;-63
2022/04/30 00:09:24;;;;;;;3.03;2.00;;;12.50;99.90;;;;;;1035260;28;20022;-66
2022/04/30 00:09:54;;;;;;;3.77;2.27;;;12.50;99.90;;;;;;1035172;28;20029;-66
2022/04/30 00:10:25;;;;;;;2.43;1.80;;;12.50;99.90;;;;;;1035048;28;20109;-64
2022/04/30 00:10:56;;;;;;;2.70;2.30;;;12.40;99.90;;;;;;1035431;28;20014;-65
2022/04/30 00:11:26;;;;;;;3.43;2.30;;;12.40;99.90;;;;;;1039190;28;20018;-66
2022/04/30 00:11:58;;;;;;;4.17;2.07;;;12.40;99.90;;;;;;1039117;28;20013;-65
2022/04/30 00:12:28;;;;;;;1.90;1.63;;;12.40;99.90;;;;;;1039272;28;20093;-65
2022/04/30 00:12:59;;;;;;;2.50;2.00;;;12.40;99.90;;;;;;1039632;28;20018;-65
2022/04/30 00:13:30;;;;;;;3.00;2.23;;;12.40;99.90;;;;;;1039490;28;20025;-64
2022/04/30 00:14:00;;;;;;;5.57;2.25;;;12.40;99.90;;;;;;1039525;28;20418;-66
2022/04/30 00:14:32;;;;;;;2.40;2.00;;;12.40;99.90;;;;;;1036483;28;22060;-64
2022/04/30 00:15:05;;;;;;;2.10;1.90;;;12.40;99.90;;;;;;1039378;28;20509;-65
2022/04/30 00:15:35;;;;;;;2.85;2.28;;;12.40;99.90;;;;;;1038756;28;20032;-64
2022/04/30 00:16:06;;;;;;;3.17;2.03;;;12.40;99.90;;;;;;1039283;28;20029;-67
2022/04/30 00:16:38;;;;;;;2.27;1.83;;;12.40;99.90;;;;;;1038700;28;20047;-64
2022/04/30 00:17:09;;;;;;;3.28;1.90;;;12.40;99.90;;;;;;1035085;28;20093;-65
2022/04/30 00:17:40;;;;;;;2.67;1.83;;;12.40;99.90;;;;;;1035288;28;20025;-64
2022/04/30 00:18:10;;;;;;;2.47;2.03;;;12.40;99.90;;;;;;1035320;28;20045;-65
2022/04/30 00:18:41;;;;;;;2.70;2.00;;;12.40;99.90;;;;;;1039468;28;20026;-65
2022/04/30 00:19:11;;;;;;;3.67;2.97;;;12.40;99.90;;;;;;1039680;28;20449;-66
2022/04/30 00:19:42;;;;;;;3.23;2.53;;;12.40;99.90;;;;;;1039731;28;20013;-64
2022/04/30 00:20:13;;;;;;;2.53;2.10;;;12.40;99.90;;;;;;1039367;28;20045;-65
2022/04/30 00:20:46;;;;;;;4.00;2.27;;;12.40;99.90;;;;;;1039697;28;20013;-65
2022/04/30 00:21:17;;;;;;;3.67;1.98;;;12.40;99.90;;;;;;1038855;28;20026;-65
2022/04/30 00:21:49;;;;;;;2.70;2.00;;;12.40;99.90;;;;;;1039639;28;20021;-65
2022/04/30 00:22:19;;;;;;;3.97;2.70;;;12.40;99.90;;;;;;1039154;28;20021;-65
2022/04/30 00:22:50;;;;;;;2.53;2.10;;;12.40;99.90;;;;;;1039625;28;20100;-66
2022/04/30 00:23:20;;;;;;;4.30;2.80;;;12.40;99.90;;;;;;1039715;28;20079;-65
2022/04/30 00:23:52;;;;;;;3.93;2.43;;;12.40;99.90;;;;;;1039743;28;20071;-65
2022/04/30 00:24:24;;;;;;;4.65;2.55;;;12.40;99.90;;;;;;1038812;28;20057;-66
2022/04/30 00:24:55;;;;;;;3.30;2.53;;;12.40;99.90;;;;;;1039141;28;20029;-65
2022/04/30 00:25:26;;;;;;;3.28;2.63;;;12.40;99.90;;;;;;1039163;28;20022;-65
2022/04/30 00:25:56;;;;;;;4.20;2.73;;;12.40;99.90;;;;;;1039263;28;20013;-64
2022/04/30 00:26:27;;;;;;;1.90;1.80;;;12.40;99.90;;;;;;1038951;28;20010;-66
2022/04/30 00:27:01;;;;;;;4.60;2.50;;;12.40;99.90;;;;;;1039318;28;20121;-65
2022/04/30 00:27:32;;;;;;;4.25;3.25;;;12.40;99.90;;;;;;1039182;28;20375;-65
2022/04/30 00:28:02;;;;;;;4.07;2.83;;;12.40;99.90;;;;;;1039327;28;20155;-67
2022/04/30 00:28:33;;;;;;;2.13;1.93;;;12.40;99.90;;;;;;1038944;28;20025;-65
2022/04/30 00:29:04;;;;;;;3.37;2.33;;;12.40;99.90;;;;;;1039417;28;20033;-65
2022/04/30 00:29:34;;;;;;;4.80;2.63;;;12.40;99.90;;;;;;1036765;28;20010;-64
2022/04/30 00:30:05;;;;;;;4.93;2.97;;;12.40;99.90;;;;;;1038894;28;20489;-66
2022/04/30 00:30:36;;;;;;;4.40;2.53;;;12.40;99.90;;;;;;1038381;28;20160;-64
2022/04/30 00:31:07;;;;;;;3.07;2.50;;;12.40;99.90;;;;;;1035455;28;20039;-65
2022/04/30 00:31:39;;;;;;;3.63;2.13;;;12.40;99.90;;;;;;1039413;28;20014;-64
2022/04/30 00:32:09;;;;;;;3.97;2.60;;;12.40;99.90;;;;;;1038420;28;20036;-67
2022/04/30 00:32:40;;;;;;;3.80;2.47;;;12.40;99.90;;;;;;1039222;28;20021;-66
2022/04/30 00:33:11;;;;;;;4.47;2.57;;;12.40;99.90;;;;;;1039578;28;20506;-64
2022/04/30 00:33:47;;;;;;;2.63;2.05;;;12.30;99.90;;;;;;1039909;28;20014;-66
2022/04/30 00:34:17;;;;;;;3.13;2.17;;;12.30;99.90;;;;;;1039435;28;20013;-65
2022/04/30 00:34:48;;;;;;;2.93;2.10;;;12.30;99.90;;;;;;1039501;28;20013;-65
2022/04/30 00:35:19;;;;;;;3.17;2.40;;;12.30;99.90;;;;;;1039367;28;20116;-64
2022/04/30 00:35:49;;;;;;;2.27;2.00;;;12.30;99.90;;;;;;1039392;28;20049;-65
2022/04/30 00:36:20;;;;;;;3.53;2.30;;;12.30;99.90;;;;;;1038474;28;20022;-65
2022/04/30 00:36:51;;;;;;;2.97;2.30;;;12.30;99.90;;;;;;1039224;28;20013;-64
2022/04/30 00:37:21;;;;;;;2.53;2.00;;;12.30;99.90;;;;;;1039714;28;20629;-66
2022/04/30 00:37:52;;;;;;;2.67;2.20;;;12.30;99.90;;;;;;1039619;28;20010;-64
2022/04/30 00:38:22;;;;;;;2.90;2.17;;;12.30;99.90;;;;;;1038955;28;20554;-66
2022/04/30 00:38:53;;;;;;;3.27;2.40;;;12.30;99.90;;;;;;1034918;28;20731;-64
2022/04/30 00:39:23;;;;;;;2.27;2.07;;;12.30;99.90;;;;;;1031281;28;20113;-64
2022/04/30 00:39:54;;;;;;;4.40;2.20;;;12.30;99.90;;;;;;1031178;28;20011;-66
2022/04/30 00:40:24;;;;;;;4.10;2.80;;;12.30;99.90;;;;;;1035090;28;20056;-67
2022/04/30 00:40:55;;;;;;;3.93;2.70;;;12.30;99.90;;;;;;1039219;28;20504;-65
2022/04/30 00:41:26;;;;;;;3.87;2.30;;;12.30;99.90;;;;;;1039625;28;20476;-66
2022/04/30 00:41:56;;;;;;;4.33;2.60;;;12.30;99.90;;;;;;1039766;28;20132;-64
2022/04/30 00:42:27;;;;;;;3.47;2.10;;;12.30;99.90;;;;;;1040045;28;20015;-63
2022/04/30 00:42:58;;;;;;;3.25;2.47;;;12.30;99.90;;;;;;1040038;28;20017;-64
2022/04/30 00:43:29;;;;;;;3.53;2.07;;;12.30;99.90;;;;;;1040036;28;20025;-64
2022/04/30 00:44:00;;;;;;;2.10;1.90;;;12.30;99.90;;;;;;1040257;28;20670;-64
2022/04/30 00:44:31;;;;;;;3.22;2.08;;;12.30;99.90;;;;;;1038223;28;20020;-67
2022/04/30 00:45:03;;;;;;;2.97;2.10;;;12.20;99.90;;;;;;1038908;28;20579;-65
2022/04/30 00:45:33;;;;;;;2.28;2.03;;;12.20;99.90;;;;;;1039076;28;20096;-64
2022/04/30 00:46:04;;;;;;;4.27;2.37;;;12.20;99.90;;;;;;1036148;28;20033;-65
2022/04/30 00:46:34;;;;;;;4.10;2.67;;;12.20;99.90;;;;;;1035649;28;20018;-65
2022/04/30 00:47:05;;;;;;;3.77;2.33;;;12.20;99.90;;;;;;1031657;28;20826;-64
2022/04/30 00:47:36;;;;;;;2.72;2.00;;;12.20;99.90;;;;;;1035992;28;20010;-68
2022/04/30 00:48:07;;;;;;;2.50;2.10;;;12.20;99.90;;;;;;1032005;28;20018;-65
2022/04/30 00:48:38;;;;;;;2.73;1.83;;;12.20;99.90;;;;;;1031878;28;20201;-64
2022/04/30 00:49:08;;;;;;;2.90;2.17;;;12.20;99.90;;;;;;1035965;28;20454;-64
2022/04/30 00:49:40;;;;;;;3.93;2.30;;;12.20;99.90;;;;;;1036308;28;20089;-65
2022/04/30 00:50:15;;;;;;;4.35;2.75;;;12.20;99.90;;;;;;1036123;28;20021;-64
2022/04/30 00:50:46;;;;;;;2.72;2.10;;;12.20;99.90;;;;;;1039863;28;20060;-67
2022/04/30 00:51:19;;;;;;;3.70;2.30;;;12.20;99.90;;;;;;1040135;28;20068;-65
2022/04/30 00:51:51;;;;;;;3.22;2.08;;;12.20;99.90;;;;;;1039433;28;20115;-65
2022/04/30 00:52:25;;;;;;;2.65;2.20;;;12.20;99.90;;;;;;1038761;28;20496;-65
2022/04/30 00:52:58;;;;;;;4.43;2.10;;;12.20;99.90;;;;;;1039739;28;20014;-66
2022/04/30 00:53:29;;;;;;;2.65;1.90;;;12.20;99.90;;;;;;1040481;28;20015;-65
2022/04/30 00:54:01;;;;;;;2.78;2.38;;;12.20;99.90;;;;;;1040590;28;20014;-65
2022/04/30 00:54:40;;;;;;;5.30;2.50;;;12.20;99.90;;;;;;1040249;28;20063;-66
2022/04/30 00:55:12;;;;;;;2.88;2.28;;;12.20;99.90;;;;;;1040342;28;20013;-65
2022/04/30 00:55:47;;;;;;;3.50;2.47;;;12.20;99.90;;;;;;1040423;28;20010;-65
2022/04/30 00:56:23;;;;;;;3.45;2.50;;;12.20;99.90;;;;;;1040261;28;20105;-66
2022/04/30 00:57:01;;;;;;;3.78;2.13;;;12.20;99.90;;;;;;1039968;28;20105;-66
2022/04/30 00:57:33;;;;;;;5.50;2.55;;;12.20;99.90;;;;;;1040214;28;20350;-65
2022/04/30 00:58:05;;;;;;;2.92;2.45;;;12.20;99.90;;;;;;1040217;28;20002;-66
2022/04/30 00:58:39;;;;;;;3.00;2.70;;;12.20;99.90;;;;;;1039845;28;20700;-66
2022/04/30 00:59:17;;;;;;;4.65;2.60;;;12.20;99.90;;;;;;1040365;28;20045;-66
2022/04/30 00:59:59;;;;;;;4.35;2.63;;;12.20;99.90;;;;;;1037407;28;20032;-66
2022/04/30 01:00:29;;;;;;;2.80;2.10;;;12.20;99.90;;;;;;1039117;28;20013;-66
2022/04/30 01:01:01;;;;;;;3.67;2.60;;;12.20;99.90;;;;;;1039897;28;20447;-65
2022/04/30 01:01:34;;;;;;;2.55;2.20;;;12.10;99.90;;;;;;1040211;28;20021;-65
2022/04/30 01:02:04;;;;;;;3.08;2.45;;;12.20;99.90;;;;;;1039763;28;20479;-67
2022/04/30 01:02:36;;;;;;;4.27;2.50;;;12.10;99.90;;;;;;1039693;28;20538;-66
2022/04/30 01:03:07;;;;;;;3.72;2.38;;;12.20;99.90;;;;;;1040029;28;20006;-66
2022/04/30 01:03:37;;;;;;;2.33;2.00;;;12.10;99.90;;;;;;1040145;28;20017;-67
2022/04/30 01:04:08;;;;;;;3.33;2.30;;;12.10;99.90;;;;;;1040127;28;20100;-66
2022/04/30 01:04:38;;;;;;;3.50;2.50;;;12.20;99.90;;;;;;1040037;28;20038;-67
2022/04/30 01:05:10;;;;;;;4.10;2.53;;;12.20;99.90;;;;;;1040422;28;20013;-64
2022/04/30 01:05:40;;;;;;;3.13;2.60;;;12.20;99.90;;;;;;1040525;28;20013;-66
2022/04/30 01:06:12;;;;;;;3.37;2.63;;;12.20;99.90;;;;;;1039974;28;20022;-66
2022/04/30 01:06:58;;;;;;;3.67;2.33;;;12.20;99.90;;;;;;1034720;28;20684;-65
2022/04/30 01:07:30;;;;;;;4.75;3.00;;;12.20;99.90;;;;;;1035964;28;20021;-64
2022/04/30 01:08:00;;;;;;;4.85;2.70;;;12.10;99.90;;;;;;1036237;28;20005;-65
2022/04/30 01:08:32;;;;;;;4.37;2.87;;;12.10;99.90;;;;;;1037944;28;20028;-65
2022/04/30 01:09:02;;;;;;;3.45;2.30;;;12.10;99.90;;;;;;1040002;28;20018;-65
2022/04/30 01:09:36;;;;;;;4.87;2.43;;;12.10;99.90;;;;;;1040038;28;20021;-66
2022/04/30 01:10:08;;;;;;;6.13;2.50;;;12.10;99.90;;;;;;1039928;28;20018;-65
2022/04/30 01:10:39;;;;;;;4.90;2.35;;;12.10;99.90;;;;;;1039946;28;20017;-65
2022/04/30 01:11:09;;;;;;;3.50;2.53;;;12.10;99.90;;;;;;1039898;28;20021;-65
2022/04/30 01:11:41;;;;;;;4.40;2.50;;;12.10;99.90;;;;;;1035992;28;20554;-65
2022/04/30 01:12:13;;;;;;;3.67;2.30;;;12.10;99.90;;;;;;1035932;28;20396;-64
2022/04/30 01:12:45;;;;;;;2.92;2.47;;;12.10;99.90;;;;;;1035661;28;20030;-66
2022/04/30 01:13:16;;;;;;;3.30;2.30;;;12.10;99.90;;;;;;1036573;28;20112;-66
2022/04/30 01:13:47;;;;;;;3.97;2.47;;;12.10;99.90;;;;;;1040180;28;20040;-65
2022/04/30 01:14:18;;;;;;;3.15;2.60;;;12.10;99.90;;;;;;1039614;28;20025;-65
2022/04/30 01:14:52;;;;;;;3.80;2.42;;;12.10;99.90;;;;;;1035894;28;20548;-65
2022/04/30 01:15:24;;;;;;;6.20;2.78;;;12.10;99.90;;;;;;1040154;28;20016;-64
2022/04/30 01:15:58;;;;;;;4.28;2.90;;;12.10;99.90;;;;;;1039017;28;20021;-65
2022/04/30 01:16:29;;;;;;;4.80;2.72;;;12.10;99.90;;;;;;1039682;28;20029;-65
2022/04/30 01:17:04;;;;;;;4.30;2.58;;;12.10;99.90;;;;;;1039780;28;20021;-65
2022/04/30 01:17:37;;;;;;;3.40;2.53;;;12.10;99.90;;;;;;1039732;28;20021;-66
2022/04/30 01:18:08;;;;;;;3.28;2.45;;;12.10;99.90;;;;;;1040095;28;20029;-65
2022/04/30 01:18:39;;;;;;;2.80;2.33;;;12.10;99.90;;;;;;1039665;28;20017;-66
2022/04/30 01:19:16;;;;;;;4.00;2.30;;;12.10;99.90;;;;;;1039921;28;20017;-65
2022/04/30 01:19:47;;;;;;;3.35;2.42;;;12.10;99.90;;;;;;1040000;28;20086;-65
2022/04/30 01:20:18;;;;;;;3.22;2.25;;;12.00;99.90;;;;;;1035809;28;20036;-65
2022/04/30 01:20:52;;;;;;;2.70;2.10;;;12.00;99.90;;;;;;1035649;28;20088;-65
2022/04/30 01:21:24;;;;;;;4.45;2.55;;;12.00;99.90;;;;;;1035804;28;20018;-66
2022/04/30 01:22:00;;;;;;;4.28;2.17;;;12.00;99.90;;;;;;1034184;28;20010;-66
2022/04/30 01:22:40;;;;;;;2.60;2.13;;;12.00;99.90;;;;;;1031624;28;20025;-68
2022/04/30 01:23:12;;;;;;;3.85;2.65;;;12.00;99.90;;;;;;1034113;28;20026;-67
2022/04/30 01:23:43;;;;;;;4.45;2.80;;;12.00;99.90;;;;;;1036102;28;20445;-66
2022/04/30 01:24:13;;;;;;;3.72;2.72;;;12.00;99.90;;;;;;1035953;28;20018;-66
2022/04/30 01:24:45;;;;;;;2.60;2.23;;;12.00;99.90;;;;;;1035719;28;20022;-66
2022/04/30 01:25:17;;;;;;;4.10;2.40;;;12.00;99.90;;;;;;1035751;28;20476;-67
2022/04/30 01:25:48;;;;;;;3.65;2.20;;;12.00;99.90;;;;;;1035843;28;20028;-64
2022/04/30 01:26:22;;;;;;;3.25;2.78;;;12.00;99.90;;;;;;1035836;28;20014;-67
2022/04/30 01:26:55;;;;;;;3.78;2.33;;;12.00;99.90;;;;;;1035754;28;20006;-65
2022/04/30 01:27:27;;;;;;;3.72;2.60;;;12.00;99.90;;;;;;1035888;28;20021;-65
2022/04/30 01:27:59;;;;;;;4.38;2.60;;;12.00;99.90;;;;;;1036265;28;20002;-65
2022/04/30 01:28:30;;;;;;;3.28;2.63;;;12.00;99.90;;;;;;1036164;28;20006;-64
2022/04/30 01:29:01;;;;;;;3.50;2.55;;;12.00;99.90;;;;;;1036079;28;20013;-66
2022/04/30 01:29:33;;;;;;;3.33;2.60;;;12.00;99.90;;;;;;1036141;28;20113;-66
2022/04/30 01:30:04;;;;;;;4.15;2.72;;;12.00;99.90;;;;;;1036628;28;20021;-65
2022/04/30 01:30:35;;;;;;;3.55;2.47;;;12.00;99.90;;;;;;1039738;28;20001;-67
2022/04/30 01:37:22;;;;;;;4.70;2.73;;;12.00;99.90;;;;;;1038757;28;20404;-68
2022/04/30 01:37:48;;;;;;;3.92;2.60;;;11.90;99.90;;;;;;1040335;28;20132;-66
2022/04/30 01:38:20;;;;;;;3.33;2.50;;;11.90;99.90;;;;;;1040313;28;20017;-64
2022/04/30 01:38:58;;;;;;;4.55;2.67;;;11.90;99.90;;;;;;1040015;28;20013;-64
2022/04/30 01:39:29;;;;;;;4.15;2.60;;;11.90;99.90;;;;;;1040335;28;20020;-65
2022/04/30 01:40:17;;;;;;;4.17;2.50;;;11.90;99.90;;;;;;1040469;28;20096;-64
2022/04/30 01:40:48;;;;;;;4.50;2.33;;;11.90;99.90;;;;;;1040096;28;20005;-66
2022/04/30 01:41:18;;;;;;;7.00;3.00;;;11.90;99.90;;;;;;1040206;28;20013;-65
2022/04/30 01:41:49;;;;;;;3.50;2.70;;;11.90;99.90;;;;;;1040281;28;20137;-65
2022/04/30 01:42:20;;;;;;;7.00;3.50;;;11.90;99.90;;;;;;1040286;28;20068;-65
2022/04/30 01:42:52;;;;;;;3.55;3.00;;;11.90;99.90;;;;;;1040000;28;20063;-67
2022/04/30 01:43:23;;;;;;;3.20;2.47;;;11.90;99.90;;;;;;1040258;28;20013;-65
2022/04/30 01:43:54;;;;;;;6.65;3.20;;;11.90;99.90;;;;;;1040174;28;20036;-66
2022/04/30 01:44:25;;;;;;;3.20;2.72;;;11.90;99.90;;;;;;1039736;28;20009;-65
2022/04/30 01:44:57;;;;;;;3.20;2.47;;;11.90;99.90;;;;;;1038684;28;20103;-66
2022/04/30 01:45:29;;;;;;;7.93;3.00;;;11.90;99.90;;;;;;1038522;28;20029;-65
2022/04/30 01:46:03;;;;;;;2.70;2.10;;;11.90;99.90;;;;;;1039237;28;20014;-65
2022/04/30 01:46:34;;;;;;;3.45;2.80;;;11.90;99.90;;;;;;1040233;28;20115;-65
2022/04/30 01:47:06;;;;;;;4.70;3.03;;;11.90;99.90;;;;;;1039935;28;20036;-64
2022/04/30 01:47:39;;;;;;;4.75;2.70;;;11.90;99.90;;;;;;1039486;28;20030;-65
2022/04/30 01:48:14;;;;;;;3.47;2.85;;;11.90;99.90;;;;;;1039683;28;20018;-65
2022/04/30 01:48:45;;;;;;;4.30;2.67;;;11.90;99.90;;;;;;1039889;28;20560;-67
2022/04/30 01:49:16;;;;;;;3.20;2.65;;;11.90;99.90;;;;;;1039740;28;20069;-65
2022/04/30 01:49:46;;;;;;;2.80;2.30;;;11.90;99.90;;;;;;1039992;28;20002;-64
2022/04/30 01:50:17;;;;;;;3.23;2.90;;;11.90;99.90;;;;;;1039851;28;20016;-65
2022/04/30 01:50:47;;;;;;;3.90;3.03;;;11.90;99.90;;;;;;1039911;28;20006;-64
2022/04/30 01:51:18;;;;;;;4.17;2.80;;;11.90;99.90;;;;;;1039659;28;20006;-64
2022/04/30 01:51:50;;;;;;;4.77;2.97;;;11.90;99.90;;;;;;1039914;28;20600;-66
2022/04/30 01:52:20;;;;;;;2.97;2.60;;;11.90;99.90;;;;;;1039230;28;20018;-65
2022/04/30 01:52:51;;;;;;;4.80;3.00;;;11.90;99.90;;;;;;1039739;28;20017;-65
2022/04/30 01:53:22;;;;;;;2.87;2.23;;;11.90;99.90;;;;;;1035338;28;20097;-65
2022/04/30 01:53:52;;;;;;;2.97;2.37;;;11.90;99.90;;;;;;1035138;28;20057;-65
2022/04/30 01:54:23;;;;;;;3.77;2.83;;;11.90;99.90;;;;;;1035788;28;20014;-65
2022/04/30 01:54:54;;;;;;;4.60;2.90;;;11.90;99.90;;;;;;1031469;28;20065;-65
2022/04/30 01:55:24;;;;;;;2.90;2.60;;;11.90;99.90;;;;;;1031584;28;20014;-64
2022/04/30 01:55:55;;;;;;;2.90;2.60;;;11.90;99.90;;;;;;1032008;28;20089;-64
2022/04/30 01:56:25;;;;;;;3.40;2.80;;;11.90;99.90;;;;;;1035833;28;20497;-65
2022/04/30 01:56:56;;;;;;;3.37;2.90;;;11.90;99.90;;;;;;1039952;28;20037;-68
2022/04/30 01:57:27;;;;;;;5.53;3.17;;;11.90;99.90;;;;;;1039959;28;20006;-65
2022/04/30 01:57:58;;;;;;;3.88;3.05;;;11.90;99.90;;;;;;1039906;28;20006;-67
2022/04/30 01:58:30;;;;;;;6.40;3.00;;;11.90;99.90;;;;;;1039910;28;20045;-64
2022/04/30 01:59:00;;;;;;;4.18;2.78;;;11.90;99.90;;;;;;1039671;28;20033;-67
2022/04/30 01:59:31;;;;;;;4.03;3.13;;;11.80;99.90;;;;;;1039727;28;20040;-65
2022/04/30 02:00:06;;;;;;;4.70;3.08;;;11.80;99.90;;;;;;1038962;28;20006;-65
2022/04/30 02:00:37;;;;;;;4.38;3.15;;;11.80;99.90;;;;;;1039221;28;20021;-65
2022/04/30 02:01:08;;;;;;;3.40;3.10;;;11.80;99.90;;;;;;1038839;28;20064;-65
2022/04/30 02:01:41;;;;;;;3.23;2.80;;;11.80;99.90;;;;;;1040171;28;20056;-64
2022/04/30 02:02:12;;;;;;;5.78;3.00;;;11.80;99.90;;;;;;1040218;28;20082;-65
2022/04/30 02:02:45;;;;;;;3.90;2.88;;;11.80;99.90;;;;;;1039132;28;20013;-65
2022/04/30 02:03:16;;;;;;;4.55;3.00;;;11.80;99.90;;;;;;1039488;28;20006;-65
2022/04/30 02:03:47;;;;;;;5.05;2.95;;;11.80;99.90;;;;;;1040019;28;20113;-64
2022/04/30 02:04:18;;;;;;;4.50;2.40;;;11.80;99.90;;;;;;1039702;28;20484;-64
2022/04/30 02:04:51;;;;;;;4.05;2.65;;;11.80;99.90;;;;;;1039837;28;20036;-68
2022/04/30 02:05:23;;;;;;;6.97;3.58;;;11.80;99.90;;;;;;1039679;28;20022;-65
2022/04/30 02:05:54;;;;;;;4.22;3.50;;;11.80;99.90;;;;;;1040009;28;20006;-66
2022/04/30 02:06:25;;;;;;;4.00;3.00;;;11.80;99.90;;;;;;1040091;28;20172;-66
2022/04/30 02:06:59;;;;;;;3.73;2.83;;;11.80;99.90;;;;;;1040124;28;20409;-66
2022/04/30 02:07:32;;;;;;;5.93;2.92;;;11.80;99.90;;;;;;1038659;28;20065;-65
2022/04/30 02:08:11;;;;;;;4.53;3.08;;;11.80;99.90;;;;;;1039879;28;20021;-65
2022/04/30 02:08:41;;;;;;;4.55;2.60;;;11.80;99.90;;;;;;1039861;28;20028;-66
2022/04/30 02:09:14;;;;;;;5.17;2.70;;;11.80;99.90;;;;;;1036840;28;20053;-65
2022/04/30 02:09:45;;;;;;;3.35;2.10;;;11.80;99.90;;;;;;1039863;28;20373;-65
2022/04/30 02:10:18;;;;;;;4.78;2.97;;;11.80;99.90;;;;;;1039675;28;20051;-65
2022/04/30 02:10:49;;;;;;;5.35;3.50;;;11.80;99.90;;;;;;1039891;28;20040;-65
2022/04/30 02:11:20;;;;;;;4.63;3.17;;;11.80;99.90;;;;;;1039382;28;20024;-65
2022/04/30 02:11:51;;;;;;;5.75;3.17;;;11.80;99.90;;;;;;1039952;28;20041;-66
2022/04/30 02:12:21;;;;;;;4.43;3.13;;;11.70;99.90;;;;;;1040015;28;20014;-66
2022/04/30 02:12:53;;;;;;;5.07;3.30;;;11.70;99.90;;;;;;1039656;28;20017;-65
2022/04/30 02:13:26;;;;;;;3.80;2.90;;;11.70;99.90;;;;;;1035293;28;20113;-66
2022/04/30 02:13:58;;;;;;;4.05;2.88;;;11.70;99.90;;;;;;1035812;28;20095;-64
2022/04/30 02:14:30;;;;;;;4.45;2.65;;;11.70;99.90;;;;;;1036308;28;20370;-64
2022/04/30 02:15:01;;;;;;;4.38;3.40;;;11.70;99.90;;;;;;1038345;28;20053;-65
2022/04/30 02:15:34;;;;;;;3.90;2.70;;;11.70;99.90;;;;;;1033277;28;20038;-65
2022/04/30 02:16:05;;;;;;;5.03;3.00;;;11.70;99.90;;;;;;1035856;28;20042;-66
2022/04/30 02:16:38;;;;;;;3.05;2.55;;;11.70;99.90;;;;;;1039398;28;20013;-64
2022/04/30 02:17:10;;;;;;;4.25;3.30;;;11.70;99.90;;;;;;1039748;28;20017;-64
2022/04/30 02:17:42;;;;;;;4.47;3.15;;;11.70;99.90;;;;;;1039390;28;20016;-64
2022/04/30 02:18:13;;;;;;;3.88;3.13;;;11.70;99.90;;;;;;1039956;28;20369;-64
2022/04/30 02:18:44;;;;;;;3.30;3.00;;;11.70;99.90;;;;;;1040071;28;20010;-65
2022/04/30 02:19:15;;;;;;;3.43;2.87;;;11.70;99.90;;;;;;1039670;28;20056;-63
2022/04/30 02:20:41;;;;;;;5.28;3.67;;;11.70;99.90;;;;;;1039622;28;20032;-66
2022/04/30 02:21:13;;;;;;;3.85;3.35;;;11.70;99.90;;;;;;1039325;28;20162;-65
2022/04/30 02:21:44;;;;;;;5.05;3.33;;;11.70;99.90;;;;;;1040057;28;20063;-64
2022/04/30 02:22:15;;;;;;;3.90;2.90;;;11.70;99.90;;;;;;1039345;28;20017;-64
2022/04/30 02:22:46;;;;;;;4.93;3.40;;;11.70;99.90;;;;;;1039886;28;20894;-63
2022/04/30 02:23:17;;;;;;;3.38;2.75;;;11.70;99.90;;;;;;1039737;28;20029;-70
2022/04/30 02:23:51;;;;;;;6.70;3.40;;;11.70;99.90;;;;;;1040022;28;20021;-65
2022/04/30 02:24:22;;;;;;;7.32;3.17;;;11.70;99.90;;;;;;1040098;28;20018;-68
2022/04/30 02:24:54;;;;;;;7.30;3.37;;;11.70;99.90;;;;;;1040100;28;20018;-65
2022/04/30 02:25:25;;;;;;;3.45;2.63;;;11.70;99.90;;;;;;1039541;28;20040;-64
2022/04/30 02:25:56;;;;;;;3.90;2.80;;;11.70;99.90;;;;;;1040169;28;20010;-64
2022/04/30 02:26:27;;;;;;;4.00;2.80;;;11.70;99.90;;;;;;1039809;28;20010;-64
2022/04/30 02:26:58;;;;;;;5.20;3.22;;;11.70;99.90;;;;;;1040071;28;20600;-64
2022/04/30 02:27:30;;;;;;;3.93;3.40;;;11.60;99.90;;;;;;1039574;28;20781;-63
2022/04/30 02:28:04;;;;;;;4.28;2.80;;;11.70;99.90;;;;;;1040228;28;20128;-64
2022/04/30 02:28:36;;;;;;;4.20;3.20;;;11.60;99.90;;;;;;1039958;28;20014;-65
2022/04/30 02:29:07;;;;;;;4.43;2.83;;;11.60;99.90;;;;;;1039941;28;20005;-64
2022/04/30 02:29:38;;;;;;;3.30;2.65;;;11.60;99.90;;;;;;1039942;28;20071;-65
2022/04/30 02:30:11;;;;;;;4.45;3.55;;;11.60;99.90;;;;;;1039035;28;20103;-65
2022/04/30 02:30:43;;;;;;;6.68;3.72;;;11.60;99.90;;;;;;1037874;28;20369;-64
2022/04/30 02:31:24;;;;;;;4.28;2.75;;;11.60;99.90;;;;;;1038841;28;20013;-65
2022/04/30 02:31:54;;;;;;;6.45;3.50;;;11.60;99.90;;;;;;1035691;28;20014;-64
2022/04/30 02:32:25;;;;;;;5.17;2.70;;;11.60;99.90;;;;;;1035875;28;20017;-64
2022/04/30 02:33:03;;;;;;;3.50;2.90;;;11.60;99.90;;;;;;1037545;28;20117;-65
2022/04/30 02:33:34;;;;;;;4.55;2.78;;;11.60;99.90;;;;;;1039606;28;20641;-65
2022/04/30 02:34:04;;;;;;;5.40;3.03;;;11.60;99.90;;;;;;1039678;28;20451;-66
2022/04/30 02:34:35;;;;;;;5.07;3.30;;;11.60;99.90;;;;;;1039705;28;20389;-65
2022/04/30 02:35:06;;;;;;;6.43;3.63;;;11.60;99.90;;;;;;1039753;28;20481;-67
2022/04/30 02:35:43;;;;;;;4.68;2.88;;;11.60;99.90;;;;;;1039546;28;20087;-64
2022/04/30 02:36:15;;;;;;;5.25;3.35;;;11.60;99.90;;;;;;1040007;28;20017;-65
2022/04/30 02:36:46;;;;;;;3.53;3.10;;;11.60;99.90;;;;;;1039977;28;20539;-67
2022/04/30 02:37:17;;;;;;;4.70;2.80;;;11.60;99.90;;;;;;1039919;28;20010;-65
2022/04/30 02:37:52;;;;;;;6.50;3.57;;;11.60;99.90;;;;;;1039318;28;20039;-65
2022/04/30 02:38:24;;;;;;;4.13;3.10;;;11.60;99.90;;;;;;1039653;28;20024;-65
2022/04/30 02:38:56;;;;;;;2.97;2.67;;;11.60;99.90;;;;;;1039759;28;20486;-65
2022/04/30 02:39:27;;;;;;;5.20;3.38;;;11.60;99.90;;;;;;1039283;28;20005;-65
2022/04/30 02:39:57;;;;;;;6.63;2.93;;;11.60;99.90;;;;;;1039832;28;20021;-66
2022/04/30 02:40:30;;;;;;;5.60;3.20;;;11.60;99.90;;;;;;1039881;28;20036;-66
2022/04/30 02:41:00;;;;;;;3.17;2.88;;;11.60;99.90;;;;;;1039814;28;20116;-65
2022/04/30 02:41:31;;;;;;;3.73;2.93;;;11.60;99.90;;;;;;1039127;28;20028;-65
2022/04/30 02:42:04;;;;;;;4.18;2.90;;;11.50;99.90;;;;;;1039717;28;20064;-65
2022/04/30 02:42:34;;;;;;;5.00;3.55;;;11.60;99.90;;;;;;1039476;28;20029;-65
2022/04/30 02:43:06;;;;;;;5.17;3.10;;;11.50;99.90;;;;;;1039833;28;20045;-66
2022/04/30 02:43:38;;;;;;;4.63;3.00;;;11.60;99.90;;;;;;1039362;28;20049;-65
2022/04/30 02:44:08;;;;;;;3.42;2.50;;;11.50;99.90;;;;;;1039653;28;20017;-65
2022/04/30 02:44:39;;;;;;;4.80;3.30;;;11.50;99.90;;;;;;1035365;28;20022;-65
2022/04/30 02:45:11;;;;;;;4.77;3.00;;;11.50;99.90;;;;;;1030937;28;20192;-65
2022/04/30 02:45:45;;;;;;;4.10;2.80;;;11.50;99.90;;;;;;1030088;28;20084;-65
2022/04/30 02:46:16;;;;;;;5.25;3.15;;;11.50;99.90;;;;;;1035475;28;20396;-66
2022/04/30 02:46:46;;;;;;;4.03;3.10;;;11.50;99.90;;;;;;1039343;28;20014;-65
2022/04/30 02:47:17;;;;;;;4.93;3.27;;;11.50;99.90;;;;;;1039901;28;20025;-65
2022/04/30 02:47:53;;;;;;;3.50;3.17;;;11.50;99.90;;;;;;1039428;28;20342;-65
2022/04/30 02:48:24;;;;;;;3.92;3.30;;;11.50;99.90;;;;;;1039566;28;20036;-65
2022/04/30 02:48:54;;;;;;;3.57;3.27;;;11.50;99.90;;;;;;1039697;28;20092;-65
2022/04/30 02:49:25;;;;;;;4.00;2.77;;;11.50;99.90;;;;;;1039532;28;20250;-66
2022/04/30 02:49:55;;;;;;;3.87;3.27;;;11.50;99.90;;;;;;1039815;28;20096;-64
2022/04/30 02:50:26;;;;;;;4.63;3.10;;;11.50;99.90;;;;;;1040020;28;20449;-65
2022/04/30 02:51:00;;;;;;;4.63;3.57;;;11.50;99.90;;;;;;1039714;28;20484;-65
2022/04/30 02:51:30;;;;;;;5.18;3.40;;;11.50;99.90;;;;;;1039247;28;20311;-66
2022/04/30 02:52:01;;;;;;;5.63;3.37;;;11.50;99.90;;;;;;1039696;28;20017;-66
2022/04/30 02:52:31;;;;;;;3.77;3.03;;;11.40;99.90;;;;;;1038872;28;20030;-67